createdAt,value
2023-04-21T00:01:34.759Z,15.32
2023-04-21T00:04:03.283Z,15.75
2023-04-21T00:06:31.395Z,16.30
2023-04-21T00:08:59.239Z,14.70
2023-04-21T00:11:27.014Z,10.82
2023-04-21T00:13:56.219Z,11.77
2023-04-21T00:16:24.102Z,13.35
2023-04-21T00:18:51.837Z,12.10
2023-04-21T00:21:19.597Z,11.85
2023-04-21T00:23:47.498Z,13.32
2023-04-21T00:26:15.477Z,15.38
2023-04-21T00:28:44.845Z,15.10
2023-04-21T00:31:12.642Z,14.90
2023-04-21T00:33:40.555Z,16.48
2023-04-21T00:36:08.431Z,15.68
2023-04-21T00:38:36.438Z,17.55
2023-04-21T00:41:04.421Z,17.33
2023-04-21T00:43:32.191Z,14.25
2023-04-21T00:45:59.966Z,15.63
2023-04-21T00:48:27.662Z,15.65
2023-04-21T00:50:55.486Z,15.82
2023-04-21T00:53:23.407Z,15.07
2023-04-21T00:55:51.942Z,15.45
2023-04-21T00:58:19.758Z,16.17
2023-04-21T01:00:47.680Z,17.00
2023-04-21T01:03:16.538Z,14.68
2023-04-21T01:05:44.550Z,13.80
2023-04-21T01:08:13.931Z,17.85
2023-04-21T01:10:42.364Z,15.38
2023-04-21T01:13:10.083Z,15.60
2023-04-21T01:15:37.892Z,15.00
2023-04-21T01:18:06.314Z,11.90
2023-04-21T01:20:34.574Z,11.88
2023-04-21T01:23:02.400Z,11.85
2023-04-21T01:25:30.271Z,11.43
2023-04-21T01:27:58.043Z,12.20
2023-04-21T01:30:25.841Z,14.82
2023-04-21T01:32:53.609Z,17.10
2023-04-21T01:35:21.442Z,16.63
2023-04-21T01:37:49.237Z,17.92
2023-04-21T01:40:17.046Z,17.10
2023-04-21T01:42:45.441Z,17.27
2023-04-21T01:45:14.055Z,18.75
2023-04-21T01:47:41.804Z,18.52
2023-04-21T01:50:10.140Z,19.15
2023-04-21T01:52:37.958Z,19.70
2023-04-21T01:55:06.350Z,17.33
2023-04-21T01:57:35.008Z,17.15
2023-04-21T02:00:04.756Z,17.60
2023-04-21T02:02:43.042Z,16.90
2023-04-21T02:05:13.518Z,17.70
2023-04-21T02:07:42.421Z,20.63
2023-04-21T02:10:11.424Z,18.83
2023-04-21T02:12:39.169Z,20.67
2023-04-21T02:15:07.947Z,18.00
2023-04-21T02:17:36.511Z,19.48
2023-04-21T02:20:04.735Z,20.90
2023-04-21T02:22:32.546Z,23.00
2023-04-21T02:25:00.311Z,21.00
2023-04-21T02:27:28.284Z,22.70
2023-04-21T02:29:56.067Z,19.65
2023-04-21T02:32:25.969Z,18.77
2023-04-21T02:34:54.217Z,19.02
2023-04-21T02:37:22.286Z,20.27
2023-04-21T02:39:50.102Z,18.95
2023-04-21T02:42:17.917Z,18.60
2023-04-21T02:44:45.968Z,19.35
2023-04-21T02:47:16.771Z,16.30
2023-04-21T02:49:44.638Z,18.88
2023-04-21T02:52:13.425Z,21.27
2023-04-21T02:54:41.106Z,18.27
2023-04-21T02:57:09.925Z,16.83
2023-04-21T02:59:37.631Z,16.98
2023-04-21T03:02:05.412Z,18.05
2023-04-21T03:04:34.184Z,18.13
2023-04-21T03:07:02.052Z,19.85
2023-04-21T03:09:29.826Z,19.23
2023-04-21T03:11:57.524Z,18.90
2023-04-21T03:14:25.415Z,21.52
2023-04-21T03:16:53.124Z,20.88
2023-04-21T03:19:21.162Z,20.38
2023-04-21T03:21:49.148Z,20.52
2023-04-21T03:24:17.245Z,20.77
2023-04-21T03:26:45.122Z,20.90
2023-04-21T03:29:12.908Z,23.10
2023-04-21T03:31:40.845Z,19.98
2023-04-21T03:34:08.540Z,21.02
2023-04-21T03:36:36.388Z,21.90
2023-04-21T03:39:20.576Z,21.30
2023-04-21T03:41:50.237Z,21.98
2023-04-21T03:44:17.966Z,22.67
2023-04-21T03:46:46.914Z,20.40
2023-04-21T03:49:14.660Z,22.38
2023-04-21T03:51:42.442Z,20.38
2023-04-21T03:54:10.235Z,21.65
2023-04-21T03:56:37.983Z,21.10
2023-04-21T03:59:06.160Z,21.60
2023-04-21T04:01:36.880Z,21.52
2023-04-21T04:04:04.915Z,15.03
2023-04-21T04:06:33.197Z,20.20
2023-04-21T04:09:04.337Z,20.63
2023-04-21T04:11:32.946Z,20.17
2023-04-21T04:14:00.839Z,21.85
2023-04-21T04:16:29.265Z,20.00
2023-04-21T04:18:57.216Z,19.00
2023-04-21T04:21:25.162Z,19.92
2023-04-21T04:23:53.245Z,22.45
2023-04-21T04:26:24.771Z,21.70
2023-04-21T04:28:53.441Z,20.65
2023-04-21T04:31:21.461Z,20.75
2023-04-21T04:33:49.487Z,20.52
2023-04-21T04:36:17.301Z,21.70
2023-04-21T04:38:48.421Z,21.27
2023-04-21T04:41:16.783Z,19.20
2023-04-21T04:43:45.169Z,20.15
2023-04-21T04:46:13.126Z,18.42
2023-04-21T04:48:41.352Z,18.42
2023-04-21T04:51:09.078Z,19.42
2023-04-21T04:53:37.451Z,19.38
2023-04-21T04:56:05.962Z,18.90
2023-04-21T04:58:33.912Z,19.73
2023-04-21T05:01:13.033Z,21.10
2023-04-21T05:03:43.187Z,18.00
2023-04-21T05:06:11.317Z,19.17
2023-04-21T05:08:40.168Z,21.00
2023-04-21T05:11:09.005Z,22.67
2023-04-21T05:13:39.548Z,23.50
2023-04-21T05:16:10.080Z,23.63
2023-04-21T05:18:38.273Z,26.30
2023-04-21T05:21:06.962Z,26.08
2023-04-21T05:23:35.675Z,28.60
2023-04-21T05:26:05.776Z,23.27
2023-04-21T05:28:33.595Z,20.17
2023-04-21T05:31:01.435Z,19.25
2023-04-21T05:33:31.751Z,22.33
2023-04-21T05:35:59.611Z,21.17
2023-04-21T05:38:27.599Z,20.30
2023-04-21T05:40:56.136Z,19.70
2023-04-21T05:43:23.938Z,17.85
2023-04-21T05:45:51.755Z,20.98
2023-04-21T05:48:22.463Z,19.25
2023-04-21T05:50:50.181Z,17.73
2023-04-21T05:53:18.077Z,18.80
2023-04-21T05:55:46.299Z,17.42
2023-04-21T05:58:14.137Z,17.10
2023-04-21T06:00:41.849Z,18.40
2023-04-21T06:03:11.644Z,16.77
2023-04-21T06:05:39.525Z,16.80
2023-04-21T06:08:07.499Z,17.10
2023-04-21T06:10:35.254Z,17.42
2023-04-21T06:13:03.138Z,16.80
2023-04-21T06:15:30.895Z,18.42
2023-04-21T06:18:00.588Z,15.23
2023-04-21T06:20:28.547Z,16.42
2023-04-21T06:22:57.559Z,16.02
2023-04-21T06:25:26.556Z,21.27
2023-04-21T06:27:54.325Z,17.15
2023-04-21T06:30:27.956Z,15.50
2023-04-21T06:32:55.887Z,17.95
2023-04-21T06:35:23.614Z,18.35
2023-04-21T06:37:52.099Z,18.60
2023-04-21T06:40:21.619Z,16.30
2023-04-21T06:42:51.022Z,15.88
2023-04-21T06:45:20.318Z,15.85
2023-04-21T06:47:49.766Z,14.27
2023-04-21T06:50:17.705Z,15.65
2023-04-21T06:52:45.448Z,14.27
2023-04-21T06:55:14.620Z,14.85
2023-04-21T06:57:45.168Z,14.48
2023-04-21T07:00:14.512Z,14.40
2023-04-21T07:02:42.447Z,13.15
2023-04-21T07:05:10.715Z,12.32
2023-04-21T07:07:38.411Z,13.82
2023-04-21T07:10:07.141Z,13.25
2023-04-21T07:12:36.774Z,13.75
2023-04-21T07:15:12.212Z,12.57
2023-04-21T07:17:43.469Z,13.38
2023-04-21T07:20:11.661Z,14.10
2023-04-21T07:22:39.385Z,12.25
2023-04-21T07:25:09.361Z,12.23
2023-04-21T07:27:37.383Z,11.68
2023-04-21T07:30:07.938Z,12.35
2023-04-21T07:32:38.785Z,11.93
2023-04-21T07:35:12.977Z,13.15
2023-04-21T07:37:41.192Z,13.18
2023-04-21T07:40:10.226Z,12.07
2023-04-21T07:45:08.963Z,11.98
2023-04-21T07:47:36.862Z,12.90
2023-04-21T07:50:07.582Z,15.13
2023-04-21T07:52:35.529Z,13.00
2023-04-21T07:55:06.302Z,13.52
2023-04-21T07:57:38.633Z,12.90
2023-04-21T08:00:07.772Z,12.55
2023-04-21T08:02:39.998Z,12.27
2023-04-21T08:05:10.145Z,12.73
2023-04-21T08:07:38.285Z,14.63
2023-04-21T08:10:08.810Z,11.65
2023-04-21T08:12:38.995Z,11.50
2023-04-21T08:15:08.427Z,13.18
2023-04-21T08:17:36.293Z,14.20
2023-04-21T08:20:05.655Z,14.20
2023-04-21T08:22:40.933Z,11.52
2023-04-21T08:25:10.968Z,11.68
2023-04-21T08:27:40.012Z,13.20
2023-04-21T08:30:09.179Z,11.55
2023-04-21T08:32:38.646Z,10.50
2023-04-21T08:35:07.396Z,11.20
2023-04-21T08:37:38.019Z,10.77
2023-04-21T08:40:07.319Z,10.17
2023-04-21T08:42:37.044Z,9.27
2023-04-21T08:45:06.942Z,8.70
2023-04-21T08:47:36.642Z,10.02
2023-04-21T08:50:04.964Z,9.18
2023-04-21T08:52:33.617Z,8.48
2023-04-21T08:55:03.706Z,8.00
2023-04-21T08:57:36.918Z,7.07
2023-04-21T09:00:07.941Z,7.50
2023-04-21T09:03:02.256Z,6.60
2023-04-21T09:05:33.962Z,6.47
2023-04-21T09:08:18.489Z,5.97
2023-04-21T09:10:52.470Z,7.18
2023-04-21T09:13:24.449Z,5.30
2023-04-21T09:15:52.735Z,6.25
2023-04-21T09:18:23.713Z,5.38
2023-04-21T09:21:10.577Z,5.00
2023-04-21T09:23:52.789Z,4.90
2023-04-21T09:26:25.226Z,4.85
2023-04-21T09:28:54.889Z,3.90
2023-04-21T09:31:30.193Z,5.30
2023-04-21T09:34:00.762Z,5.68
2023-04-21T09:36:31.991Z,4.30
2023-04-21T09:41:34.183Z,3.30
2023-04-21T09:44:04.069Z,3.75
2023-04-21T09:46:37.602Z,4.95
2023-04-21T09:49:06.624Z,3.40
2023-04-21T09:57:03.970Z,3.67
2023-04-21T09:59:37.411Z,3.55
2023-04-21T10:02:07.733Z,3.15
2023-04-21T10:04:39.194Z,2.70
2023-04-21T10:09:58.141Z,3.75
2023-04-21T10:12:27.756Z,3.20
2023-04-21T10:14:56.942Z,3.55
2023-04-21T10:17:27.749Z,3.53
2023-04-21T10:19:57.774Z,3.70
2023-04-21T10:22:30.557Z,3.15
2023-04-21T10:25:01.291Z,3.03
2023-04-21T10:27:43.263Z,3.47
2023-04-21T10:30:28.855Z,4.35
2023-04-21T10:33:05.345Z,3.53
2023-04-21T10:35:58.834Z,5.85
2023-04-21T10:38:44.151Z,4.13
2023-04-21T10:41:33.958Z,3.58
2023-04-21T10:44:22.441Z,4.53
2023-04-21T10:46:52.984Z,3.50
2023-04-21T10:49:30.208Z,4.40
2023-04-21T10:52:06.281Z,7.53
2023-04-21T10:54:46.389Z,4.85
2023-04-21T10:57:20.020Z,5.28
2023-04-21T10:59:51.858Z,4.97
2023-04-21T11:02:19.848Z,5.07
2023-04-21T11:04:54.709Z,5.65
2023-04-21T11:07:26.843Z,6.30
2023-04-21T11:10:15.645Z,5.97
2023-04-21T11:12:43.403Z,5.47
2023-04-21T11:15:20.944Z,7.18
2023-04-21T11:17:51.491Z,7.00
2023-04-21T11:20:19.261Z,6.30
2023-04-21T11:22:55.776Z,6.32
2023-04-21T11:25:25.991Z,5.72
2023-04-21T11:27:59.927Z,4.90
2023-04-21T11:30:35.424Z,5.90
2023-04-21T11:33:05.406Z,9.45
2023-04-21T11:35:33.276Z,6.18
2023-04-21T11:38:05.894Z,6.18
2023-04-21T11:40:51.151Z,6.03
2023-04-21T11:43:23.367Z,6.00
2023-04-21T11:45:51.530Z,7.00
2023-04-21T11:48:22.488Z,6.55
2023-04-21T11:50:50.849Z,7.28
2023-04-21T11:53:20.883Z,6.53
2023-04-21T11:55:48.629Z,6.88
2023-04-21T11:58:17.750Z,6.43
2023-04-21T12:00:47.159Z,6.78
2023-04-21T12:03:19.663Z,6.90
2023-04-21T12:05:56.976Z,7.35
2023-04-21T12:08:24.887Z,8.38
2023-04-21T12:10:52.733Z,8.90
2023-04-21T12:13:30.713Z,9.48
2023-04-21T12:16:04.203Z,9.15
2023-04-21T12:18:36.764Z,9.63
2023-04-21T12:21:04.872Z,9.77
2023-04-21T12:23:33.913Z,9.07
2023-04-21T12:26:01.909Z,8.52
2023-04-21T12:28:30.258Z,9.23
2023-04-21T12:30:58.113Z,9.05
2023-04-21T12:33:25.974Z,8.18
2023-04-21T12:35:55.140Z,10.63
2023-04-21T12:38:22.920Z,9.15
2023-04-21T12:40:50.749Z,10.07
2023-04-21T12:43:18.495Z,10.95
2023-04-21T12:45:48.111Z,9.88
2023-04-21T12:48:16.021Z,9.68
2023-04-21T12:50:43.935Z,10.65
2023-04-21T12:53:11.646Z,10.48
2023-04-21T12:55:40.180Z,9.50
2023-04-21T12:58:12.601Z,11.13
2023-04-21T13:00:41.433Z,9.80
2023-04-21T13:03:10.960Z,10.50
2023-04-21T13:05:45.957Z,11.30
2023-04-21T13:08:14.505Z,10.70
2023-04-21T13:10:42.222Z,11.65
2023-04-21T13:13:10.045Z,10.68
2023-04-21T13:15:41.444Z,13.25
2023-04-21T13:18:09.536Z,11.98
2023-04-21T13:20:37.272Z,10.38
2023-04-21T13:23:05.094Z,12.52
2023-04-21T13:25:33.048Z,13.82
2023-04-21T13:28:01.189Z,10.27
2023-04-21T13:30:29.096Z,10.35
2023-04-21T13:32:58.618Z,10.50
2023-04-21T13:35:26.450Z,10.65
2023-04-21T13:37:54.371Z,10.52
2023-04-21T13:40:22.081Z,10.77
2023-04-21T13:42:49.922Z,10.77
2023-04-21T13:45:17.658Z,10.40
2023-04-21T13:47:45.439Z,10.05
2023-04-21T13:50:13.160Z,8.98
2023-04-21T13:52:40.933Z,9.05
2023-04-21T13:55:09.172Z,9.65
2023-04-21T13:57:38.156Z,8.75
2023-04-21T14:00:08.094Z,9.38
2023-04-21T14:02:39.050Z,9.45
2023-04-21T14:05:09.565Z,9.90
2023-04-21T14:07:39.635Z,9.05
2023-04-21T14:10:08.133Z,8.25
2023-04-21T14:12:36.054Z,7.93
2023-04-21T14:15:06.000Z,8.32
2023-04-21T14:17:35.792Z,8.10
2023-04-21T14:20:04.279Z,8.13
2023-04-21T14:22:31.955Z,7.43
2023-04-21T14:25:02.500Z,6.30
2023-04-21T14:27:34.239Z,7.55
2023-04-21T14:30:02.909Z,7.35
2023-04-21T14:32:30.814Z,6.95
2023-04-21T14:35:00.587Z,6.65
2023-04-21T14:37:28.340Z,6.43
2023-04-21T14:39:56.014Z,5.88
2023-04-21T14:42:23.868Z,9.95
2023-04-21T14:44:52.378Z,6.28
2023-04-21T14:47:21.929Z,6.10
2023-04-21T14:49:54.683Z,5.55
2023-04-21T14:52:27.159Z,5.80
2023-04-21T14:54:56.959Z,6.10
2023-04-21T14:57:24.820Z,5.85
2023-04-21T14:59:53.565Z,6.50
2023-04-21T15:02:22.533Z,6.53
2023-04-21T15:04:50.771Z,5.65
2023-04-21T15:07:24.475Z,6.40
2023-04-21T15:09:55.657Z,6.25
2023-04-21T15:12:23.495Z,5.95
2023-04-21T15:14:51.604Z,8.85
2023-04-21T15:17:19.324Z,5.95
2023-04-21T15:19:48.501Z,5.32
2023-04-21T15:22:16.391Z,6.43
2023-04-21T15:24:44.169Z,6.05
2023-04-21T15:27:11.911Z,5.55
2023-04-21T15:29:39.762Z,7.45
2023-04-21T15:32:07.587Z,6.00
2023-04-21T15:34:35.626Z,6.10
2023-04-21T15:37:03.339Z,5.70
2023-04-21T15:39:31.062Z,6.47
2023-04-21T15:41:59.377Z,6.30
2023-04-21T15:44:27.290Z,5.75
2023-04-21T15:46:55.127Z,9.90
2023-04-21T15:49:25.726Z,6.50
2023-04-21T15:51:53.866Z,5.75
2023-04-21T15:54:21.672Z,1.92
2023-04-21T15:56:49.735Z,1.25
2023-04-21T15:59:17.426Z,0.80
2023-04-21T16:01:45.302Z,1.23
2023-04-21T16:04:13.437Z,1.23
2023-04-21T16:06:41.571Z,0.73
2023-04-21T16:09:10.831Z,0.80
2023-04-21T16:11:38.639Z,0.60
2023-04-21T16:14:08.246Z,1.95
2023-04-21T16:16:37.349Z,3.00
2023-04-21T16:19:05.299Z,4.55
2023-04-21T16:21:33.011Z,4.55
2023-04-21T16:24:00.868Z,3.30
2023-04-21T16:26:28.976Z,1.70
2023-04-21T16:28:57.875Z,2.63
2023-04-21T16:31:25.919Z,4.38
2023-04-21T16:34:00.300Z,3.70
2023-04-21T16:36:28.858Z,4.00
2023-04-21T16:38:56.729Z,2.63
2023-04-21T16:41:25.504Z,1.88
2023-04-21T16:43:53.555Z,2.75
2023-04-21T16:46:21.971Z,5.13
2023-04-21T16:48:49.869Z,3.88
2023-04-21T16:51:17.936Z,3.50
2023-04-21T16:53:45.765Z,3.55
2023-04-21T16:56:14.756Z,2.83
2023-04-21T16:58:42.506Z,2.95
2023-04-21T17:01:10.297Z,3.05
2023-04-21T17:03:39.091Z,2.40
2023-04-21T17:06:10.737Z,3.65
2023-04-21T17:08:39.256Z,1.73
2023-04-21T17:11:07.254Z,1.25
2023-04-21T17:13:38.044Z,1.00
2023-04-21T17:16:09.631Z,1.08
2023-04-21T17:18:39.438Z,0.93
2023-04-21T17:21:07.226Z,0.93
2023-04-21T17:23:35.454Z,1.10
2023-04-21T17:26:05.151Z,0.85
2023-04-21T17:28:33.496Z,0.98
2023-04-21T17:31:14.578Z,1.27
2023-04-21T17:33:44.688Z,1.67
2023-04-21T17:36:12.661Z,1.00
2023-04-21T17:38:42.550Z,2.15
2023-04-21T17:41:10.554Z,1.67
2023-04-21T17:43:38.258Z,1.92
2023-04-21T17:46:07.419Z,1.83
2023-04-21T17:48:35.249Z,2.10
2023-04-21T17:51:03.957Z,1.33
2023-04-21T17:53:32.022Z,1.25
2023-04-21T17:56:00.059Z,1.98
2023-04-21T17:58:29.856Z,3.55
2023-04-21T18:00:57.640Z,3.42
2023-04-21T18:03:27.458Z,2.55
2023-04-21T18:05:56.022Z,20.20
2023-04-21T18:08:23.930Z,5.78
2023-04-21T18:10:51.750Z,5.70
2023-04-21T18:13:19.476Z,4.00
2023-04-21T18:15:47.234Z,3.05
2023-04-21T18:18:15.454Z,1.95
2023-04-21T18:20:43.358Z,1.85
2023-04-21T18:23:11.367Z,2.00
2023-04-21T18:25:42.728Z,2.22
2023-04-21T18:28:14.369Z,1.90
2023-04-21T18:30:42.506Z,1.88
2023-04-21T18:33:11.524Z,1.88
2023-04-21T18:35:41.514Z,2.35
2023-04-21T18:38:11.611Z,1.98
2023-04-21T18:40:40.769Z,1.70
2023-04-21T18:43:09.914Z,1.70
2023-04-21T18:45:38.683Z,2.72
2023-04-21T18:48:06.450Z,2.78
2023-04-21T18:50:39.313Z,2.03
2023-04-21T18:53:08.550Z,0.80
2023-04-21T18:55:37.348Z,0.65
2023-04-21T18:58:05.159Z,0.85
2023-04-21T19:00:37.172Z,1.20
2023-04-21T19:03:06.253Z,1.73
2023-04-21T19:05:36.073Z,0.80
2023-04-21T19:08:07.404Z,1.65
2023-04-21T19:10:35.680Z,1.27
2023-04-21T19:13:04.232Z,1.10
2023-04-21T19:15:32.153Z,1.48
2023-04-21T19:17:59.976Z,1.00
2023-04-21T19:20:28.991Z,1.05
2023-04-21T19:22:56.827Z,1.65
2023-04-21T19:25:26.072Z,1.30
2023-04-21T19:27:54.075Z,1.50
2023-04-21T19:30:21.936Z,1.33
2023-04-21T19:32:49.698Z,1.05
2023-04-21T19:35:17.578Z,1.30
2023-04-21T19:37:47.932Z,1.00
2023-04-21T19:40:16.002Z,1.67
2023-04-21T19:42:43.679Z,4.72
2023-04-21T19:45:12.693Z,1.90
2023-04-21T19:47:40.486Z,2.65
2023-04-21T19:50:09.235Z,1.08
2023-04-21T19:52:37.108Z,1.30
2023-04-21T19:55:06.396Z,1.30
2023-04-21T19:57:35.862Z,1.40
2023-04-21T20:00:06.167Z,1.48
2023-04-21T20:02:40.109Z,2.47
2023-04-21T20:05:10.870Z,0.90
2023-04-21T20:07:39.614Z,1.30
2023-04-21T20:10:08.633Z,2.05
2023-04-21T20:12:36.462Z,1.20
2023-04-21T20:15:05.589Z,1.55
2023-04-21T20:17:35.341Z,0.95
2023-04-21T20:20:05.275Z,1.10
2023-04-21T20:22:33.035Z,1.25
2023-04-21T20:25:00.834Z,3.13
2023-04-21T20:27:28.489Z,1.58
2023-04-21T20:29:56.962Z,1.42
2023-04-21T20:32:25.040Z,1.65
2023-04-21T20:34:53.703Z,2.05
2023-04-21T20:37:23.004Z,1.98
2023-04-21T20:39:50.935Z,2.05
2023-04-21T20:42:19.317Z,1.65
2023-04-21T20:44:48.135Z,1.50
2023-04-21T20:47:17.743Z,1.42
2023-04-21T20:49:47.336Z,1.77
2023-04-21T20:52:15.941Z,2.35
2023-04-21T20:54:43.702Z,1.60
2023-04-21T20:57:12.106Z,2.17
2023-04-21T20:59:40.714Z,2.60
2023-04-21T21:02:09.090Z,1.40
2023-04-21T21:04:36.910Z,1.70
2023-04-21T21:07:04.740Z,1.60
2023-04-21T21:09:32.411Z,1.45
2023-04-21T21:12:02.318Z,1.38
2023-04-21T21:14:30.128Z,1.00
2023-04-21T21:16:58.211Z,1.77
2023-04-21T21:19:26.277Z,1.30
2023-04-21T21:21:54.201Z,1.75
2023-04-21T21:24:21.952Z,1.50
2023-04-21T21:26:50.758Z,2.05
2023-04-21T21:29:20.460Z,0.90
2023-04-21T21:31:48.206Z,2.40
2023-04-21T21:34:16.017Z,1.98
2023-04-21T21:36:43.833Z,2.58
2023-04-21T21:39:11.607Z,1.65
2023-04-21T21:41:39.717Z,1.10
2023-04-21T21:44:08.332Z,1.73
2023-04-21T21:46:36.396Z,1.10
2023-04-21T21:49:04.750Z,3.33
2023-04-21T21:51:32.669Z,1.27
2023-04-21T21:54:00.511Z,1.15
2023-04-21T21:56:28.396Z,2.90
2023-04-21T21:58:56.182Z,1.13
2023-04-21T22:01:23.965Z,1.00
2023-04-21T22:03:53.038Z,1.40
2023-04-21T22:06:26.511Z,0.75
2023-04-21T22:08:54.708Z,1.05
2023-04-21T22:11:22.871Z,0.90
2023-04-21T22:13:51.386Z,1.23
2023-04-21T22:16:19.181Z,0.93
2023-04-21T22:18:48.298Z,1.10
2023-04-21T22:21:16.166Z,1.30
2023-04-21T22:23:43.861Z,1.42
2023-04-21T22:26:11.688Z,0.93
2023-04-21T22:28:41.629Z,1.25
2023-04-21T22:31:10.464Z,1.90
2023-04-21T22:33:38.312Z,2.00
2023-04-21T22:36:08.535Z,2.08
2023-04-21T22:38:38.502Z,1.50
2023-04-21T22:41:07.182Z,2.63
2023-04-21T22:43:35.052Z,1.85
2023-04-21T22:46:03.117Z,2.95
2023-04-21T22:48:32.624Z,3.83
2023-04-21T22:51:01.435Z,2.80
2023-04-21T22:53:29.444Z,2.22
2023-04-21T22:55:57.328Z,1.83
2023-04-21T22:58:26.187Z,2.25
2023-04-21T23:00:54.133Z,2.42
2023-04-21T23:03:23.169Z,3.25
2023-04-21T23:05:51.072Z,2.85
2023-04-21T23:08:18.820Z,2.38
2023-04-21T23:10:47.428Z,2.08
2023-04-21T23:13:15.164Z,2.40
2023-04-21T23:15:42.911Z,2.30
2023-04-21T23:18:10.713Z,2.17
2023-04-21T23:20:38.583Z,1.70
2023-04-21T23:23:06.544Z,2.10
2023-04-21T23:25:34.325Z,3.72
2023-04-21T23:28:02.088Z,1.80
2023-04-21T23:30:29.997Z,2.55
2023-04-21T23:32:58.056Z,1.83
2023-04-21T23:35:26.159Z,2.22
2023-04-21T23:37:56.044Z,2.70
2023-04-21T23:40:23.994Z,2.85
2023-04-21T23:42:51.733Z,3.13
2023-04-21T23:45:19.826Z,2.90
2023-04-21T23:47:47.561Z,2.95
2023-04-21T23:50:15.367Z,2.78
2023-04-21T23:52:44.143Z,2.80
2023-04-21T23:55:12.932Z,2.60
2023-04-21T23:57:40.685Z,2.70
